sensor_id;sensor_type;location;lat;lon;timestamp;temperature;humidity
5588;DHT22;2816;49.778;9.986;2023-05-20T00:01:53;14.10;99.90
5588;DHT22;2816;49.778;9.986;2023-05-20T00:04:20;14.10;99.90
5588;DHT22;2816;49.778;9.986;2023-05-20T00:06:47;14.10;99.90
5588;DHT22;2816;49.778;9.986;2023-05-20T00:09:15;14.10;99.90
5588;DHT22;2816;49.778;9.986;2023-05-20T00:11:42;14.10;99.90
5588;DHT22;2816;49.778;9.986;2023-05-20T00:14:09;14.10;99.90
5588;DHT22;2816;49.778;9.986;2023-05-20T00:16:36;14.10;99.90
5588;DHT22;2816;49.778;9.986;2023-05-20T00:19:03;14.10;99.90
5588;DHT22;2816;49.778;9.986;2023-05-20T00:21:30;14.10;99.90
5588;DHT22;2816;49.778;9.986;2023-05-20T00:23:58;14.10;99.90
5588;DHT22;2816;49.778;9.986;2023-05-20T00:26:27;14.10;99.90
5588;DHT22;2816;49.778;9.986;2023-05-20T00:28:54;14.10;99.90
5588;DHT22;2816;49.778;9.986;2023-05-20T00:31:21;14.10;99.90
5588;DHT22;2816;49.778;9.986;2023-05-20T00:33:48;14.10;99.90
5588;DHT22;2816;49.778;9.986;2023-05-20T00:36:15;14.10;99.90
5588;DHT22;2816;49.778;9.986;2023-05-20T00:38:42;14.10;99.90
5588;DHT22;2816;49.778;9.986;2023-05-20T00:41:09;14.10;99.90
5588;DHT22;2816;49.778;9.986;2023-05-20T00:43:37;14.10;99.90
5588;DHT22;2816;49.778;9.986;2023-05-20T00:46:04;14.10;99.90
5588;DHT22;2816;49.778;9.986;2023-05-20T00:48:36;14.10;99.90
5588;DHT22;2816;49.778;9.986;2023-05-20T00:51:05;14.00;99.90
5588;DHT22;2816;49.778;9.986;2023-05-20T00:53:33;14.00;99.90
5588;DHT22;2816;49.778;9.986;2023-05-20T00:56:00;13.90;99.90
5588;DHT22;2816;49.778;9.986;2023-05-20T00:58:27;13.90;99.90
5588;DHT22;2816;49.778;9.986;2023-05-20T01:00:55;13.90;99.90
5588;DHT22;2816;49.778;9.986;2023-05-20T01:03:22;13.90;99.90
5588;DHT22;2816;49.778;9.986;2023-05-20T01:05:49;14.00;99.90
5588;DHT22;2816;49.778;9.986;2023-05-20T01:08:16;13.90;99.90
5588;DHT22;2816;49.778;9.986;2023-05-20T01:10:46;13.90;99.90
5588;DHT22;2816;49.778;9.986;2023-05-20T01:13:19;13.80;99.90
5588;DHT22;2816;49.778;9.986;2023-05-20T01:15:47;13.80;99.90
5588;DHT22;2816;49.778;9.986;2023-05-20T01:18:16;13.80;99.90
5588;DHT22;2816;49.778;9.986;2023-05-20T01:20:47;13.80;99.90
5588;DHT22;2816;49.778;9.986;2023-05-20T01:23:16;13.80;99.90
5588;DHT22;2816;49.778;9.986;2023-05-20T01:25:43;13.80;99.90
5588;DHT22;2816;49.778;9.986;2023-05-20T01:28:10;13.80;99.90
5588;DHT22;2816;49.778;9.986;2023-05-20T01:30:45;13.80;99.90
5588;DHT22;2816;49.778;9.986;2023-05-20T01:33:14;13.80;99.90
5588;DHT22;2816;49.778;9.986;2023-05-20T01:35:43;13.80;99.90
5588;DHT22;2816;49.778;9.986;2023-05-20T01:38:11;13.80;99.90
5588;DHT22;2816;49.778;9.986;2023-05-20T01:40:40;13.80;99.90
5588;DHT22;2816;49.778;9.986;2023-05-20T01:43:07;13.80;99.90
5588;DHT22;2816;49.778;9.986;2023-05-20T01:45:36;13.70;99.90
5588;DHT22;2816;49.778;9.986;2023-05-20T01:48:04;13.70;99.90
5588;DHT22;2816;49.778;9.986;2023-05-20T01:50:31;13.70;99.90
5588;DHT22;2816;49.778;9.986;2023-05-20T01:52:58;13.70;99.90
5588;DHT22;2816;49.778;9.986;2023-05-20T01:55:25;13.70;99.90
5588;DHT22;2816;49.778;9.986;2023-05-20T01:57:54;13.70;99.90
5588;DHT22;2816;49.778;9.986;2023-05-20T02:00:20;13.70;99.90
5588;DHT22;2816;49.778;9.986;2023-05-20T02:02:47;13.70;99.90
5588;DHT22;2816;49.778;9.986;2023-05-20T02:05:15;13.70;99.90
5588;DHT22;2816;49.778;9.986;2023-05-20T02:07:42;13.70;99.90
5588;DHT22;2816;49.778;9.986;2023-05-20T02:10:09;13.70;99.90
5588;DHT22;2816;49.778;9.986;2023-05-20T02:12:36;13.70;99.90
5588;DHT22;2816;49.778;9.986;2023-05-20T02:15:06;13.70;99.90
5588;DHT22;2816;49.778;9.986;2023-05-20T02:17:33;13.70;99.90
5588;DHT22;2816;49.778;9.986;2023-05-20T02:20:00;13.70;99.90
5588;DHT22;2816;49.778;9.986;2023-05-20T02:22:30;13.70;99.90
5588;DHT22;2816;49.778;9.986;2023-05-20T02:24:57;13.70;99.90
5588;DHT22;2816;49.778;9.986;2023-05-20T02:27:24;13.70;99.90
5588;DHT22;2816;49.778;9.986;2023-05-20T02:29:51;13.80;99.90
5588;DHT22;2816;49.778;9.986;2023-05-20T02:32:19;13.80;99.90
5588;DHT22;2816;49.778;9.986;2023-05-20T02:34:48;13.90;99.90
5588;DHT22;2816;49.778;9.986;2023-05-20T02:37:15;13.80;99.90
5588;DHT22;2816;49.778;9.986;2023-05-20T02:39:43;13.80;99.90
5588;DHT22;2816;49.778;9.986;2023-05-20T02:42:11;13.80;99.90
5588;DHT22;2816;49.778;9.986;2023-05-20T02:44:38;13.80;99.90
5588;DHT22;2816;49.778;9.986;2023-05-20T02:47:05;13.80;99.90
5588;DHT22;2816;49.778;9.986;2023-05-20T02:49:34;13.80;99.90
5588;DHT22;2816;49.778;9.986;2023-05-20T02:52:00;13.80;99.90
5588;DHT22;2816;49.778;9.986;2023-05-20T02:54:28;13.80;99.90
5588;DHT22;2816;49.778;9.986;2023-05-20T02:56:55;13.80;99.90
5588;DHT22;2816;49.778;9.986;2023-05-20T02:59:22;13.80;99.90
5588;DHT22;2816;49.778;9.986;2023-05-20T03:01:49;13.80;99.90
5588;DHT22;2816;49.778;9.986;2023-05-20T03:04:16;13.80;99.90
5588;DHT22;2816;49.778;9.986;2023-05-20T03:06:47;13.80;99.90
5588;DHT22;2816;49.778;9.986;2023-05-20T03:09:16;13.80;99.90
5588;DHT22;2816;49.778;9.986;2023-05-20T03:11:44;13.80;99.90
5588;DHT22;2816;49.778;9.986;2023-05-20T03:14:12;13.90;99.90
5588;DHT22;2816;49.778;9.986;2023-05-20T03:16:39;13.90;99.90
5588;DHT22;2816;49.778;9.986;2023-05-20T03:19:06;13.90;99.90
5588;DHT22;2816;49.778;9.986;2023-05-20T03:21:33;13.90;99.90
5588;DHT22;2816;49.778;9.986;2023-05-20T03:24:01;13.90;99.90
5588;DHT22;2816;49.778;9.986;2023-05-20T03:26:28;13.90;99.90
5588;DHT22;2816;49.778;9.986;2023-05-20T03:28:57;13.80;99.90
5588;DHT22;2816;49.778;9.986;2023-05-20T03:31:24;13.90;99.90
5588;DHT22;2816;49.778;9.986;2023-05-20T03:33:51;13.90;99.90
5588;DHT22;2816;49.778;9.986;2023-05-20T03:36:18;13.80;99.90
5588;DHT22;2816;49.778;9.986;2023-05-20T03:38:45;13.90;99.90
5588;DHT22;2816;49.778;9.986;2023-05-20T03:41:13;13.90;99.90
5588;DHT22;2816;49.778;9.986;2023-05-20T03:43:41;13.80;99.90
5588;DHT22;2816;49.778;9.986;2023-05-20T03:46:08;13.80;99.90
5588;DHT22;2816;49.778;9.986;2023-05-20T03:48:34;13.80;99.90
5588;DHT22;2816;49.778;9.986;2023-05-20T03:51:01;13.80;99.90
5588;DHT22;2816;49.778;9.986;2023-05-20T03:53:28;13.80;99.90
5588;DHT22;2816;49.778;9.986;2023-05-20T03:55:55;13.80;99.90
5588;DHT22;2816;49.778;9.986;2023-05-20T03:58:24;13.80;99.90
5588;DHT22;2816;49.778;9.986;2023-05-20T04:00:53;13.80;99.90
5588;DHT22;2816;49.778;9.986;2023-05-20T04:03:20;13.80;99.90
5588;DHT22;2816;49.778;9.986;2023-05-20T04:05:48;13.80;99.90
5588;DHT22;2816;49.778;9.986;2023-05-20T04:08:15;13.80;99.90
5588;DHT22;2816;49.778;9.986;2023-05-20T04:10:43;13.80;99.90
5588;DHT22;2816;49.778;9.986;2023-05-20T04:13:10;13.80;99.90
5588;DHT22;2816;49.778;9.986;2023-05-20T04:15:39;13.80;99.90
5588;DHT22;2816;49.778;9.986;2023-05-20T04:18:06;13.80;99.90
5588;DHT22;2816;49.778;9.986;2023-05-20T04:20:33;13.80;99.90
5588;DHT22;2816;49.778;9.986;2023-05-20T04:23:00;13.80;99.90
5588;DHT22;2816;49.778;9.986;2023-05-20T04:25:27;13.80;99.90
5588;DHT22;2816;49.778;9.986;2023-05-20T04:27:54;13.80;99.90
5588;DHT22;2816;49.778;9.986;2023-05-20T04:30:22;13.80;99.90
5588;DHT22;2816;49.778;9.986;2023-05-20T04:32:50;13.80;99.90
5588;DHT22;2816;49.778;9.986;2023-05-20T04:35:18;13.80;99.90
5588;DHT22;2816;49.778;9.986;2023-05-20T04:37:45;13.80;99.90
5588;DHT22;2816;49.778;9.986;2023-05-20T04:40:13;13.90;99.90
5588;DHT22;2816;49.778;9.986;2023-05-20T04:42:41;13.80;99.90
5588;DHT22;2816;49.778;9.986;2023-05-20T04:45:10;13.90;99.90
5588;DHT22;2816;49.778;9.986;2023-05-20T04:47:37;13.90;99.90
5588;DHT22;2816;49.778;9.986;2023-05-20T04:50:07;13.80;99.90
5588;DHT22;2816;49.778;9.986;2023-05-20T04:52:36;13.80;99.90
5588;DHT22;2816;49.778;9.986;2023-05-20T04:55:04;13.80;99.90
5588;DHT22;2816;49.778;9.986;2023-05-20T04:57:32;13.80;99.90
5588;DHT22;2816;49.778;9.986;2023-05-20T05:00:00;13.90;99.90
5588;DHT22;2816;49.778;9.986;2023-05-20T05:02:27;13.80;99.90
5588;DHT22;2816;49.778;9.986;2023-05-20T05:04:54;13.90;99.90
5588;DHT22;2816;49.778;9.986;2023-05-20T05:07:22;13.90;99.90
5588;DHT22;2816;49.778;9.986;2023-05-20T05:09:49;14.00;99.90
5588;DHT22;2816;49.778;9.986;2023-05-20T05:12:16;13.90;99.90
5588;DHT22;2816;49.778;9.986;2023-05-20T05:14:43;14.00;99.90
5588;DHT22;2816;49.778;9.986;2023-05-20T05:17:10;14.00;99.90
5588;DHT22;2816;49.778;9.986;2023-05-20T05:19:36;14.20;99.90
5588;DHT22;2816;49.778;9.986;2023-05-20T05:22:04;14.20;99.90
5588;DHT22;2816;49.778;9.986;2023-05-20T05:24:32;14.20;99.90
5588;DHT22;2816;49.778;9.986;2023-05-20T05:26:59;14.20;99.90
5588;DHT22;2816;49.778;9.986;2023-05-20T05:29:26;14.20;99.90
5588;DHT22;2816;49.778;9.986;2023-05-20T05:31:53;14.20;99.90
5588;DHT22;2816;49.778;9.986;2023-05-20T05:34:20;14.20;99.90
5588;DHT22;2816;49.778;9.986;2023-05-20T05:36:47;14.30;99.90
5588;DHT22;2816;49.778;9.986;2023-05-20T05:39:14;14.30;99.90
5588;DHT22;2816;49.778;9.986;2023-05-20T05:41:42;14.30;99.90
5588;DHT22;2816;49.778;9.986;2023-05-20T05:44:09;14.40;99.90
5588;DHT22;2816;49.778;9.986;2023-05-20T05:46:36;14.40;99.90
5588;DHT22;2816;49.778;9.986;2023-05-20T05:49:03;14.40;99.90
5588;DHT22;2816;49.778;9.986;2023-05-20T05:51:30;14.40;99.90
5588;DHT22;2816;49.778;9.986;2023-05-20T05:53:56;14.40;99.90
5588;DHT22;2816;49.778;9.986;2023-05-20T05:56:23;14.50;99.90
5588;DHT22;2816;49.778;9.986;2023-05-20T05:58:52;14.40;99.90
5588;DHT22;2816;49.778;9.986;2023-05-20T06:01:19;14.60;99.90
5588;DHT22;2816;49.778;9.986;2023-05-20T06:03:46;14.60;99.90
5588;DHT22;2816;49.778;9.986;2023-05-20T06:06:13;14.70;99.90
5588;DHT22;2816;49.778;9.986;2023-05-20T06:08:40;14.60;99.90
5588;DHT22;2816;49.778;9.986;2023-05-20T06:11:07;14.60;99.90
5588;DHT22;2816;49.778;9.986;2023-05-20T06:13:35;14.50;99.90
5588;DHT22;2816;49.778;9.986;2023-05-20T06:16:03;14.40;99.90
5588;DHT22;2816;49.778;9.986;2023-05-20T06:18:30;14.30;99.90
5588;DHT22;2816;49.778;9.986;2023-05-20T06:20:57;14.30;99.90
5588;DHT22;2816;49.778;9.986;2023-05-20T06:23:24;14.30;99.90
5588;DHT22;2816;49.778;9.986;2023-05-20T06:25:52;14.20;99.90
5588;DHT22;2816;49.778;9.986;2023-05-20T06:28:19;14.20;99.90
5588;DHT22;2816;49.778;9.986;2023-05-20T06:30:46;14.20;99.90
5588;DHT22;2816;49.778;9.986;2023-05-20T06:33:15;14.20;99.90
5588;DHT22;2816;49.778;9.986;2023-05-20T06:35:42;14.20;99.90
5588;DHT22;2816;49.778;9.986;2023-05-20T06:38:09;14.20;99.90
5588;DHT22;2816;49.778;9.986;2023-05-20T06:40:36;14.30;99.90
5588;DHT22;2816;49.778;9.986;2023-05-20T06:43:03;14.30;99.90
5588;DHT22;2816;49.778;9.986;2023-05-20T06:45:30;14.30;99.90
5588;DHT22;2816;49.778;9.986;2023-05-20T06:47:57;14.40;99.90
5588;DHT22;2816;49.778;9.986;2023-05-20T06:50:26;14.60;99.90
5588;DHT22;2816;49.778;9.986;2023-05-20T06:52:53;14.90;99.90
5588;DHT22;2816;49.778;9.986;2023-05-20T06:55:20;15.10;99.90
5588;DHT22;2816;49.778;9.986;2023-05-20T06:57:47;15.20;99.90
5588;DHT22;2816;49.778;9.986;2023-05-20T07:00:14;15.30;99.90
5588;DHT22;2816;49.778;9.986;2023-05-20T07:02:41;15.40;99.90
5588;DHT22;2816;49.778;9.986;2023-05-20T07:05:09;15.50;99.90
5588;DHT22;2816;49.778;9.986;2023-05-20T07:07:37;15.60;99.90
5588;DHT22;2816;49.778;9.986;2023-05-20T07:10:05;15.60;99.90
5588;DHT22;2816;49.778;9.986;2023-05-20T07:12:33;15.70;99.90
5588;DHT22;2816;49.778;9.986;2023-05-20T07:15:00;15.70;99.90
5588;DHT22;2816;49.778;9.986;2023-05-20T07:17:27;15.70;99.90
5588;DHT22;2816;49.778;9.986;2023-05-20T07:19:54;15.70;99.90
5588;DHT22;2816;49.778;9.986;2023-05-20T07:22:21;15.80;99.90
5588;DHT22;2816;49.778;9.986;2023-05-20T07:24:50;15.80;99.90
5588;DHT22;2816;49.778;9.986;2023-05-20T07:27:17;15.70;99.90
5588;DHT22;2816;49.778;9.986;2023-05-20T07:29:44;15.80;99.90
5588;DHT22;2816;49.778;9.986;2023-05-20T07:32:11;15.80;99.90
5588;DHT22;2816;49.778;9.986;2023-05-20T07:34:38;15.70;99.90
5588;DHT22;2816;49.778;9.986;2023-05-20T07:37:04;15.80;99.90
5588;DHT22;2816;49.778;9.986;2023-05-20T07:39:31;15.80;99.90
5588;DHT22;2816;49.778;9.986;2023-05-20T07:42:00;15.90;99.90
5588;DHT22;2816;49.778;9.986;2023-05-20T07:44:26;16.00;99.90
5588;DHT22;2816;49.778;9.986;2023-05-20T07:46:54;16.20;99.90
5588;DHT22;2816;49.778;9.986;2023-05-20T07:49:21;16.30;99.90
5588;DHT22;2816;49.778;9.986;2023-05-20T07:51:48;16.20;99.90
5588;DHT22;2816;49.778;9.986;2023-05-20T07:54:14;16.20;99.90
5588;DHT22;2816;49.778;9.986;2023-05-20T07:56:41;16.40;99.90
5588;DHT22;2816;49.778;9.986;2023-05-20T07:59:10;16.70;99.90
5588;DHT22;2816;49.778;9.986;2023-05-20T08:01:39;16.80;99.90
5588;DHT22;2816;49.778;9.986;2023-05-20T08:04:07;17.00;99.90
5588;DHT22;2816;49.778;9.986;2023-05-20T08:06:34;17.00;99.90
5588;DHT22;2816;49.778;9.986;2023-05-20T08:09:01;16.90;99.90
5588;DHT22;2816;49.778;9.986;2023-05-20T08:11:28;17.00;99.90
5588;DHT22;2816;49.778;9.986;2023-05-20T08:13:55;16.90;99.90
5588;DHT22;2816;49.778;9.986;2023-05-20T08:16:23;17.00;99.90
5588;DHT22;2816;49.778;9.986;2023-05-20T08:18:50;17.00;99.90
5588;DHT22;2816;49.778;9.986;2023-05-20T08:21:17;17.10;99.90
5588;DHT22;2816;49.778;9.986;2023-05-20T08:23:44;17.30;99.90
5588;DHT22;2816;49.778;9.986;2023-05-20T08:26:11;17.40;99.90
5588;DHT22;2816;49.778;9.986;2023-05-20T08:28:38;17.40;99.90
5588;DHT22;2816;49.778;9.986;2023-05-20T08:31:05;17.40;99.90
5588;DHT22;2816;49.778;9.986;2023-05-20T08:33:33;17.20;99.90
5588;DHT22;2816;49.778;9.986;2023-05-20T08:36:01;17.50;99.90
5588;DHT22;2816;49.778;9.986;2023-05-20T08:38:27;17.50;99.90
5588;DHT22;2816;49.778;9.986;2023-05-20T08:40:55;17.60;99.90
5588;DHT22;2816;49.778;9.986;2023-05-20T08:43:23;17.80;99.90
5588;DHT22;2816;49.778;9.986;2023-05-20T08:45:50;18.10;99.90
5588;DHT22;2816;49.778;9.986;2023-05-20T08:48:17;17.90;99.90
5588;DHT22;2816;49.778;9.986;2023-05-20T08:50:49;18.00;99.90
5588;DHT22;2816;49.778;9.986;2023-05-20T08:53:17;18.10;99.90
5588;DHT22;2816;49.778;9.986;2023-05-20T08:55:46;18.10;99.90
5588;DHT22;2816;49.778;9.986;2023-05-20T08:58:14;18.20;99.90
5588;DHT22;2816;49.778;9.986;2023-05-20T09:00:42;18.10;99.90
5588;DHT22;2816;49.778;9.986;2023-05-20T09:03:09;18.20;99.90
5588;DHT22;2816;49.778;9.986;2023-05-20T09:05:36;18.30;99.90
5588;DHT22;2816;49.778;9.986;2023-05-20T09:08:08;18.30;99.90
5588;DHT22;2816;49.778;9.986;2023-05-20T09:10:36;18.40;99.90
5588;DHT22;2816;49.778;9.986;2023-05-20T09:13:04;18.50;99.90
5588;DHT22;2816;49.778;9.986;2023-05-20T09:15:32;18.70;99.90
5588;DHT22;2816;49.778;9.986;2023-05-20T09:17:59;18.80;99.90
5588;DHT22;2816;49.778;9.986;2023-05-20T09:20:27;18.70;99.90
5588;DHT22;2816;49.778;9.986;2023-05-20T09:22:58;18.70;99.90
5588;DHT22;2816;49.778;9.986;2023-05-20T09:25:27;18.90;99.90
5588;DHT22;2816;49.778;9.986;2023-05-20T09:27:54;18.80;99.90
5588;DHT22;2816;49.778;9.986;2023-05-20T09:30:22;18.90;99.90
5588;DHT22;2816;49.778;9.986;2023-05-20T09:32:53;19.00;99.90
5588;DHT22;2816;49.778;9.986;2023-05-20T09:35:20;19.20;99.90
5588;DHT22;2816;49.778;9.986;2023-05-20T09:37:47;19.20;99.90
5588;DHT22;2816;49.778;9.986;2023-05-20T09:40:17;18.90;99.90
5588;DHT22;2816;49.778;9.986;2023-05-20T09:42:51;18.90;99.90
5588;DHT22;2816;49.778;9.986;2023-05-20T09:45:19;18.60;99.90
5588;DHT22;2816;49.778;9.986;2023-05-20T09:47:49;18.50;99.90
5588;DHT22;2816;49.778;9.986;2023-05-20T09:50:16;18.60;99.90
5588;DHT22;2816;49.778;9.986;2023-05-20T09:52:46;18.70;99.90
5588;DHT22;2816;49.778;9.986;2023-05-20T09:55:14;19.10;99.90
5588;DHT22;2816;49.778;9.986;2023-05-20T09:57:41;18.90;99.90
5588;DHT22;2816;49.778;9.986;2023-05-20T10:00:11;19.20;99.90
5588;DHT22;2816;49.778;9.986;2023-05-20T10:02:42;19.40;99.90
5588;DHT22;2816;49.778;9.986;2023-05-20T10:05:13;19.40;99.90
5588;DHT22;2816;49.778;9.986;2023-05-20T10:08:05;19.30;99.90
5588;DHT22;2816;49.778;9.986;2023-05-20T10:10:42;19.30;99.90
5588;DHT22;2816;49.778;9.986;2023-05-20T10:13:19;19.40;99.90
5588;DHT22;2816;49.778;9.986;2023-05-20T10:15:58;19.70;99.90
5588;DHT22;2816;49.778;9.986;2023-05-20T10:18:35;20.00;99.90
5588;DHT22;2816;49.778;9.986;2023-05-20T10:21:14;20.30;99.90
5588;DHT22;2816;49.778;9.986;2023-05-20T10:23:42;20.20;99.90
5588;DHT22;2816;49.778;9.986;2023-05-20T10:26:09;20.50;99.90
5588;DHT22;2816;49.778;9.986;2023-05-20T10:28:38;20.60;99.90
5588;DHT22;2816;49.778;9.986;2023-05-20T10:31:16;20.70;99.90
5588;DHT22;2816;49.778;9.986;2023-05-20T10:33:44;20.60;99.90
5588;DHT22;2816;49.778;9.986;2023-05-20T10:36:22;20.30;99.90
5588;DHT22;2816;49.778;9.986;2023-05-20T10:38:52;20.40;99.90
5588;DHT22;2816;49.778;9.986;2023-05-20T10:41:20;20.80;99.90
5588;DHT22;2816;49.778;9.986;2023-05-20T10:43:58;20.80;99.90
5588;DHT22;2816;49.778;9.986;2023-05-20T10:46:28;20.80;99.90
5588;DHT22;2816;49.778;9.986;2023-05-20T10:48:55;21.00;99.90
5588;DHT22;2816;49.778;9.986;2023-05-20T10:51:23;20.80;99.90
5588;DHT22;2816;49.778;9.986;2023-05-20T10:53:54;20.50;99.90
5588;DHT22;2816;49.778;9.986;2023-05-20T10:56:23;20.50;99.90
5588;DHT22;2816;49.778;9.986;2023-05-20T10:58:51;20.80;99.90
5588;DHT22;2816;49.778;9.986;2023-05-20T11:01:25;21.20;99.90
5588;DHT22;2816;49.778;9.986;2023-05-20T11:03:56;21.20;99.90
5588;DHT22;2816;49.778;9.986;2023-05-20T11:06:26;21.30;99.90
5588;DHT22;2816;49.778;9.986;2023-05-20T11:08:54;21.50;99.90
5588;DHT22;2816;49.778;9.986;2023-05-20T11:11:21;21.60;99.90
5588;DHT22;2816;49.778;9.986;2023-05-20T11:13:50;21.50;99.90
5588;DHT22;2816;49.778;9.986;2023-05-20T11:16:19;21.70;99.90
5588;DHT22;2816;49.778;9.986;2023-05-20T11:18:47;22.10;99.90
5588;DHT22;2816;49.778;9.986;2023-05-20T11:21:17;22.20;99.90
5588;DHT22;2816;49.778;9.986;2023-05-20T11:23:44;22.60;99.70
5588;DHT22;2816;49.778;9.986;2023-05-20T11:26:11;22.70;99.10
5588;DHT22;2816;49.778;9.986;2023-05-20T11:28:39;22.60;99.20
5588;DHT22;2816;49.778;9.986;2023-05-20T11:31:06;22.80;98.40
5588;DHT22;2816;49.778;9.986;2023-05-20T11:33:33;22.80;98.90
5588;DHT22;2816;49.778;9.986;2023-05-20T11:36:01;22.80;98.20
5588;DHT22;2816;49.778;9.986;2023-05-20T11:38:30;22.80;98.50
5588;DHT22;2816;49.778;9.986;2023-05-20T11:40:57;22.90;97.60
5588;DHT22;2816;49.778;9.986;2023-05-20T11:43:24;22.90;98.10
5588;DHT22;2816;49.778;9.986;2023-05-20T11:45:52;22.50;99.00
5588;DHT22;2816;49.778;9.986;2023-05-20T11:48:20;22.70;98.20
5588;DHT22;2816;49.778;9.986;2023-05-20T11:50:47;22.70;98.30
5588;DHT22;2816;49.778;9.986;2023-05-20T11:53:15;22.60;98.60
5588;DHT22;2816;49.778;9.986;2023-05-20T11:55:48;22.70;98.00
5588;DHT22;2816;49.778;9.986;2023-05-20T11:58:17;22.90;97.90
5588;DHT22;2816;49.778;9.986;2023-05-20T12:00:44;22.40;97.70
5588;DHT22;2816;49.778;9.986;2023-05-20T12:03:11;22.50;98.40
5588;DHT22;2816;49.778;9.986;2023-05-20T12:05:38;22.70;97.90
5588;DHT22;2816;49.778;9.986;2023-05-20T12:08:06;22.80;97.30
5588;DHT22;2816;49.778;9.986;2023-05-20T12:10:33;23.00;97.30
5588;DHT22;2816;49.778;9.986;2023-05-20T12:13:03;23.10;96.70
5588;DHT22;2816;49.778;9.986;2023-05-20T12:15:33;23.10;96.60
5588;DHT22;2816;49.778;9.986;2023-05-20T12:18:00;23.20;96.80
5588;DHT22;2816;49.778;9.986;2023-05-20T12:20:29;22.90;97.40
5588;DHT22;2816;49.778;9.986;2023-05-20T12:22:58;22.90;97.20
5588;DHT22;2816;49.778;9.986;2023-05-20T12:25:25;23.00;97.60
5588;DHT22;2816;49.778;9.986;2023-05-20T12:27:52;23.10;97.30
5588;DHT22;2816;49.778;9.986;2023-05-20T12:30:22;23.00;96.90
5588;DHT22;2816;49.778;9.986;2023-05-20T12:32:49;23.20;97.40
5588;DHT22;2816;49.778;9.986;2023-05-20T12:35:23;23.40;97.30
5588;DHT22;2816;49.778;9.986;2023-05-20T12:37:49;23.30;96.70
5588;DHT22;2816;49.778;9.986;2023-05-20T12:40:16;23.40;96.80
5588;DHT22;2816;49.778;9.986;2023-05-20T12:42:43;23.40;97.00
5588;DHT22;2816;49.778;9.986;2023-05-20T12:45:10;23.40;96.90
5588;DHT22;2816;49.778;9.986;2023-05-20T12:47:39;23.30;96.70
5588;DHT22;2816;49.778;9.986;2023-05-20T12:50:06;23.70;96.60
5588;DHT22;2816;49.778;9.986;2023-05-20T12:52:33;23.90;96.50
5588;DHT22;2816;49.778;9.986;2023-05-20T12:55:00;23.40;96.90
5588;DHT22;2816;49.778;9.986;2023-05-20T12:57:28;23.40;96.70
5588;DHT22;2816;49.778;9.986;2023-05-20T12:59:55;23.40;96.60
5588;DHT22;2816;49.778;9.986;2023-05-20T13:02:22;23.40;97.10
5588;DHT22;2816;49.778;9.986;2023-05-20T13:04:50;23.50;96.20
5588;DHT22;2816;49.778;9.986;2023-05-20T13:07:17;23.50;96.50
5588;DHT22;2816;49.778;9.986;2023-05-20T13:09:44;23.60;96.70
5588;DHT22;2816;49.778;9.986;2023-05-20T13:12:12;23.50;96.60
5588;DHT22;2816;49.778;9.986;2023-05-20T13:14:38;23.50;96.60
5588;DHT22;2816;49.778;9.986;2023-05-20T13:17:06;23.50;96.70
5588;DHT22;2816;49.778;9.986;2023-05-20T13:19:33;23.60;97.10
5588;DHT22;2816;49.778;9.986;2023-05-20T13:22:01;23.70;96.20
5588;DHT22;2816;49.778;9.986;2023-05-20T13:24:28;23.70;96.40
5588;DHT22;2816;49.778;9.986;2023-05-20T13:26:55;23.80;96.40
5588;DHT22;2816;49.778;9.986;2023-05-20T13:29:22;23.80;96.40
5588;DHT22;2816;49.778;9.986;2023-05-20T13:31:49;24.20;96.00
5588;DHT22;2816;49.778;9.986;2023-05-20T13:34:16;24.00;96.00
5588;DHT22;2816;49.778;9.986;2023-05-20T13:36:43;23.50;96.00
5588;DHT22;2816;49.778;9.986;2023-05-20T13:39:11;23.60;96.60
5588;DHT22;2816;49.778;9.986;2023-05-20T13:41:38;23.60;96.20
5588;DHT22;2816;49.778;9.986;2023-05-20T13:44:05;23.60;96.50
5588;DHT22;2816;49.778;9.986;2023-05-20T13:46:32;23.60;96.30
5588;DHT22;2816;49.778;9.986;2023-05-20T13:48:58;23.40;96.50
5588;DHT22;2816;49.778;9.986;2023-05-20T13:51:25;23.30;96.60
5588;DHT22;2816;49.778;9.986;2023-05-20T13:53:52;23.10;97.00
5588;DHT22;2816;49.778;9.986;2023-05-20T13:56:21;23.40;96.70
5588;DHT22;2816;49.778;9.986;2023-05-20T13:58:48;23.20;96.90
5588;DHT22;2816;49.778;9.986;2023-05-20T14:01:14;23.40;96.90
5588;DHT22;2816;49.778;9.986;2023-05-20T14:03:42;23.50;96.80
5588;DHT22;2816;49.778;9.986;2023-05-20T14:06:09;23.60;96.70
5588;DHT22;2816;49.778;9.986;2023-05-20T14:08:36;23.70;96.50
5588;DHT22;2816;49.778;9.986;2023-05-20T14:11:03;23.90;96.40
5588;DHT22;2816;49.778;9.986;2023-05-20T14:13:31;24.00;96.00
5588;DHT22;2816;49.778;9.986;2023-05-20T14:15:59;24.00;96.40
5588;DHT22;2816;49.778;9.986;2023-05-20T14:18:25;24.30;95.90
5588;DHT22;2816;49.778;9.986;2023-05-20T14:20:52;24.20;95.60
5588;DHT22;2816;49.778;9.986;2023-05-20T14:23:20;24.20;95.90
5588;DHT22;2816;49.778;9.986;2023-05-20T14:25:47;24.00;95.40
5588;DHT22;2816;49.778;9.986;2023-05-20T14:28:14;24.00;95.80
5588;DHT22;2816;49.778;9.986;2023-05-20T14:30:42;24.30;95.90
5588;DHT22;2816;49.778;9.986;2023-05-20T14:33:09;24.40;95.50
5588;DHT22;2816;49.778;9.986;2023-05-20T14:35:36;24.10;95.90
5588;DHT22;2816;49.778;9.986;2023-05-20T14:38:03;23.80;95.70
5588;DHT22;2816;49.778;9.986;2023-05-20T14:40:31;23.80;96.10
5588;DHT22;2816;49.778;9.986;2023-05-20T14:42:58;23.70;96.20
5588;DHT22;2816;49.778;9.986;2023-05-20T14:45:25;23.70;96.10
5588;DHT22;2816;49.778;9.986;2023-05-20T14:47:53;23.70;96.10
5588;DHT22;2816;49.778;9.986;2023-05-20T14:50:20;23.60;95.80
5588;DHT22;2816;49.778;9.986;2023-05-20T14:52:48;23.60;96.00
5588;DHT22;2816;49.778;9.986;2023-05-20T14:55:14;23.50;96.20
5588;DHT22;2816;49.778;9.986;2023-05-20T14:57:42;23.50;96.10
5588;DHT22;2816;49.778;9.986;2023-05-20T15:00:10;23.60;96.40
5588;DHT22;2816;49.778;9.986;2023-05-20T15:02:37;23.70;96.30
5588;DHT22;2816;49.778;9.986;2023-05-20T15:05:06;23.60;95.90
5588;DHT22;2816;49.778;9.986;2023-05-20T15:07:36;23.70;95.80
5588;DHT22;2816;49.778;9.986;2023-05-20T15:10:04;23.60;95.80
5588;DHT22;2816;49.778;9.986;2023-05-20T15:12:31;23.70;96.10
5588;DHT22;2816;49.778;9.986;2023-05-20T15:14:57;23.60;95.90
5588;DHT22;2816;49.778;9.986;2023-05-20T15:17:24;23.50;95.90
5588;DHT22;2816;49.778;9.986;2023-05-20T15:19:51;23.40;95.70
5588;DHT22;2816;49.778;9.986;2023-05-20T15:22:19;23.30;95.40
5588;DHT22;2816;49.778;9.986;2023-05-20T15:24:46;23.20;95.40
5588;DHT22;2816;49.778;9.986;2023-05-20T15:27:13;23.30;95.70
5588;DHT22;2816;49.778;9.986;2023-05-20T15:29:40;23.30;95.80
5588;DHT22;2816;49.778;9.986;2023-05-20T15:32:07;23.20;95.40
5588;DHT22;2816;49.778;9.986;2023-05-20T15:34:34;23.50;95.40
5588;DHT22;2816;49.778;9.986;2023-05-20T15:37:01;23.50;95.50
5588;DHT22;2816;49.778;9.986;2023-05-20T15:39:29;23.60;95.30
5588;DHT22;2816;49.778;9.986;2023-05-20T15:41:56;23.20;95.70
5588;DHT22;2816;49.778;9.986;2023-05-20T15:44:26;23.20;95.90
5588;DHT22;2816;49.778;9.986;2023-05-20T15:46:54;23.30;95.90
5588;DHT22;2816;49.778;9.986;2023-05-20T15:49:21;23.20;95.90
5588;DHT22;2816;49.778;9.986;2023-05-20T15:51:48;23.30;96.00
5588;DHT22;2816;49.778;9.986;2023-05-20T15:54:15;23.30;95.80
5588;DHT22;2816;49.778;9.986;2023-05-20T15:56:45;23.30;95.80
5588;DHT22;2816;49.778;9.986;2023-05-20T15:59:12;23.30;96.00
5588;DHT22;2816;49.778;9.986;2023-05-20T16:01:39;23.40;96.30
5588;DHT22;2816;49.778;9.986;2023-05-20T16:04:06;23.40;96.00
5588;DHT22;2816;49.778;9.986;2023-05-20T16:06:33;23.50;96.20